Time;durP1;ratioP1;P1;durP2;ratioP2;P2;SDS_P1;SDS_P2;PMS_P1;PMS_P2;Temp;Humidity;BMP_temperature;BMP_pressure;BME280_temperature;BME280_humidity;BME280_pressure;Samples;Min_cycle;Max_cycle;Signal;HPM_P1;HPM_P2
2023/03/01 00:00:18;;;;;;;12.70;9.30;;;1.60;99.90;;;;;;5090688;28;20260;-72
2023/03/01 00:02:45;;;;;;;13.50;9.83;;;1.60;99.90;;;;;;5090462;28;20553;-73
2023/03/01 00:05:12;;;;;;;14.53;9.43;;;1.60;99.90;;;;;;5090448;28;20273;-72
2023/03/01 00:07:39;;;;;;;12.03;9.00;;;1.60;99.90;;;;;;5089983;28;20241;-73
2023/03/01 00:10:08;;;;;;;12.23;9.23;;;1.60;99.90;;;;;;5090109;28;20213;-73
2023/03/01 00:12:36;;;;;;;13.03;9.47;;;1.50;99.90;;;;;;5089963;28;20667;-73
2023/03/01 00:15:04;;;;;;;13.57;9.37;;;1.60;99.90;;;;;;5090255;28;20663;-72
2023/03/01 00:17:31;;;;;;;13.40;9.57;;;1.50;99.90;;;;;;5090443;28;20220;-72
2023/03/01 00:19:58;;;;;;;16.47;9.97;;;1.50;99.90;;;;;;5075272;28;20295;-72
2023/03/01 00:22:27;;;;;;;13.60;9.83;;;1.40;99.90;;;;;;5080189;28;20209;-72
2023/03/01 00:24:54;;;;;;;14.03;9.50;;;1.40;99.90;;;;;;5089743;28;20211;-72
2023/03/01 00:27:23;;;;;;;12.40;9.43;;;1.40;99.90;;;;;;5089880;28;20682;-72
2023/03/01 00:29:49;;;;;;;12.47;9.10;;;1.30;99.90;;;;;;5089360;28;20671;-71
2023/03/01 00:32:16;;;;;;;12.97;9.33;;;1.30;99.90;;;;;;5089345;28;20231;-71
2023/03/01 00:34:53;;;;;;;9.17;8.20;;;1.20;99.90;;;;;;5089441;28;20314;-72
2023/03/01 00:37:21;;;;;;;9.60;8.20;;;1.20;99.90;;;;;;5089925;28;20601;-71
2023/03/01 00:39:47;;;;;;;10.67;8.57;;;1.20;99.90;;;;;;5089154;28;20728;-72
2023/03/01 00:42:14;;;;;;;13.50;8.50;;;1.10;99.90;;;;;;5089151;28;20742;-71
2023/03/01 00:44:43;;;;;;;11.63;8.27;;;1.10;99.90;;;;;;5089681;28;20285;-71
2023/03/01 00:47:10;;;;;;;9.83;8.23;;;1.10;99.90;;;;;;5090471;28;20658;-71
2023/03/01 00:49:37;;;;;;;9.50;7.77;;;1.10;99.90;;;;;;5090004;28;20210;-71
2023/03/01 00:52:04;;;;;;;11.27;8.77;;;1.20;99.90;;;;;;5088876;28;20866;-71
2023/03/01 00:54:30;;;;;;;12.13;8.50;;;1.10;99.90;;;;;;5089318;28;20853;-71
2023/03/01 00:56:57;;;;;;;10.93;8.53;;;1.10;99.90;;;;;;5089434;28;20256;-71
2023/03/01 00:59:24;;;;;;;13.23;8.97;;;1.00;99.90;;;;;;5089898;28;20736;-71
2023/03/01 01:01:52;;;;;;;10.97;8.97;;;1.00;99.90;;;;;;5089566;28;20298;-71
2023/03/01 01:04:19;;;;;;;14.70;10.00;;;1.00;99.90;;;;;;5089386;28;20302;-71
2023/03/01 01:06:47;;;;;;;15.67;9.57;;;1.00;99.90;;;;;;5089424;28;20877;-71
2023/03/01 01:09:17;;;;;;;14.20;9.87;;;0.90;99.90;;;;;;5089357;28;20317;-71
2023/03/01 01:11:46;;;;;;;12.20;8.83;;;0.90;99.90;;;;;;5089341;28;20195;-71
2023/03/01 01:14:13;;;;;;;12.30;8.47;;;0.90;99.90;;;;;;5089736;28;20207;-71
2023/03/01 01:16:40;;;;;;;11.10;7.90;;;0.90;99.90;;;;;;5089597;28;20469;-71
2023/03/01 01:19:10;;;;;;;12.27;8.30;;;0.90;99.90;;;;;;5089102;28;20302;-71
2023/03/01 01:21:37;;;;;;;9.27;8.27;;;1.00;99.90;;;;;;5088951;28;20226;-72
2023/03/01 01:24:04;;;;;;;9.03;7.70;;;1.00;99.90;;;;;;5089000;28;20242;-71
2023/03/01 01:26:33;;;;;;;12.07;7.67;;;0.90;99.90;;;;;;5089016;28;20672;-71
2023/03/01 01:29:01;;;;;;;10.00;7.80;;;0.90;99.90;;;;;;5089171;28;20211;-70
2023/03/01 01:31:29;;;;;;;9.53;7.30;;;0.80;99.90;;;;;;5088642;28;20330;-71
2023/03/01 01:33:57;;;;;;;13.37;7.37;;;0.80;99.90;;;;;;5088666;28;20712;-71
2023/03/01 01:36:25;;;;;;;9.27;7.47;;;0.80;99.90;;;;;;5088950;28;20282;-71
2023/03/01 01:38:52;;;;;;;8.73;7.73;;;0.80;99.90;;;;;;5088776;28;20758;-70
2023/03/01 01:41:20;;;;;;;9.13;7.57;;;0.80;99.90;;;;;;5089133;28;20305;-71
2023/03/01 01:43:49;;;;;;;9.63;6.80;;;0.70;99.90;;;;;;5087770;28;20683;-71
2023/03/01 01:46:26;;;;;;;10.60;8.30;;;0.70;99.90;;;;;;5088531;28;20288;-71
2023/03/01 01:48:58;;;;;;;8.10;7.30;;;0.70;99.90;;;;;;5088980;28;20258;-71
2023/03/01 01:51:37;;;;;;;10.00;8.20;;;0.60;99.90;;;;;;5088654;28;20732;-71
2023/03/01 01:54:09;;;;;;;13.00;8.43;;;0.50;99.90;;;;;;5088462;28;20219;-71
2023/03/01 01:56:38;;;;;;;9.90;7.60;;;0.50;99.90;;;;;;5088899;28;20290;-71
2023/03/01 01:59:05;;;;;;;10.77;8.03;;;0.50;99.90;;;;;;5089274;28;20285;-71
2023/03/01 02:01:32;;;;;;;10.00;7.90;;;0.60;99.90;;;;;;5089067;28;20238;-71
2023/03/01 02:04:00;;;;;;;9.43;7.70;;;0.60;99.90;;;;;;5088033;28;20293;-70
2023/03/01 02:06:32;;;;;;;10.50;8.00;;;0.60;99.90;;;;;;5088819;28;20656;-70
2023/03/01 02:09:02;;;;;;;10.27;7.70;;;0.60;99.90;;;;;;5087663;28;20238;-70
2023/03/01 02:11:32;;;;;;;10.63;8.77;;;0.50;99.90;;;;;;5088024;28;20300;-71
2023/03/01 02:13:59;;;;;;;10.10;7.83;;;0.50;99.90;;;;;;5090008;28;20267;-71
2023/03/01 02:16:28;;;;;;;12.13;8.47;;;0.50;99.90;;;;;;5088933;28;20281;-72
2023/03/01 02:18:55;;;;;;;10.13;8.17;;;0.50;99.90;;;;;;5088479;28;20218;-72
2023/03/01 02:21:37;;;;;;;10.40;8.13;;;0.50;99.90;;;;;;5088559;28;20738;-72
2023/03/01 02:24:11;;;;;;;9.37;7.57;;;0.50;99.90;;;;;;5101186;28;20222;-72
2023/03/01 02:26:46;;;;;;;11.07;8.00;;;0.50;99.90;;;;;;5108602;28;20274;-71
2023/03/01 02:29:14;;;;;;;10.43;8.13;;;0.50;99.90;;;;;;5108655;28;20193;-71
2023/03/01 02:31:44;;;;;;;11.10;8.57;;;0.50;99.90;;;;;;5091749;28;20314;-71
2023/03/01 02:34:14;;;;;;;12.03;8.13;;;0.50;99.90;;;;;;5088181;28;20250;-71
2023/03/01 02:36:46;;;;;;;12.20;7.80;;;0.50;99.90;;;;;;5088126;28;20198;-70
2023/03/01 02:39:17;;;;;;;10.87;8.07;;;0.60;99.90;;;;;;5088182;28;20290;-70
2023/03/01 02:41:48;;;;;;;12.43;7.67;;;0.50;99.90;;;;;;5087979;28;20191;-71
2023/03/01 02:44:17;;;;;;;9.27;8.10;;;0.40;99.90;;;;;;5088104;28;20651;-71
2023/03/01 02:46:46;;;;;;;10.20;7.47;;;0.40;99.90;;;;;;5088214;28;20210;-72
2023/03/01 02:49:26;;;;;;;11.37;8.17;;;0.40;99.90;;;;;;5088527;28;20789;-71
2023/03/01 02:52:24;;;;;;;8.53;7.63;;;0.40;99.90;;;;;;5088096;28;20215;-72
2023/03/01 02:54:58;;;;;;;8.90;7.27;;;0.30;99.90;;;;;;5087606;28;20286;-71
2023/03/01 02:57:27;;;;;;;8.47;7.27;;;0.30;99.90;;;;;;5087470;28;20274;-71
2023/03/01 02:59:56;;;;;;;8.37;7.10;;;0.20;99.90;;;;;;5087619;28;20261;-72
2023/03/01 03:02:35;;;;;;;8.80;7.60;;;0.10;99.90;;;;;;5087304;28;20855;-71
2023/03/01 03:05:05;;;;;;;10.80;7.93;;;0.20;99.90;;;;;;5087491;28;20672;-71
2023/03/01 03:07:34;;;;;;;8.57;7.00;;;0.30;99.90;;;;;;5087394;28;20249;-72
2023/03/01 03:10:01;;;;;;;8.27;7.33;;;0.20;99.90;;;;;;5087697;28;20217;-71
2023/03/01 03:12:28;;;;;;;9.27;7.37;;;0.10;99.90;;;;;;5087584;28;20583;-72
2023/03/01 03:14:56;;;;;;;9.23;7.60;;;0.10;99.90;;;;;;5068402;28;20237;-72
2023/03/01 03:17:23;;;;;;;11.07;7.90;;;0.10;99.90;;;;;;5072423;28;20223;-71
2023/03/01 03:19:50;;;;;;;10.03;7.73;;;0.10;99.90;;;;;;5077633;28;20211;-70
2023/03/01 03:22:17;;;;;;;14.27;8.07;;;0.00;99.90;;;;;;5089470;28;20203;-71
2023/03/01 03:24:44;;;;;;;11.47;7.70;;;0.00;99.90;;;;;;5070507;28;20315;-71
2023/03/01 03:27:10;;;;;;;10.47;8.20;;;0.00;99.90;;;;;;5070848;28;20633;-71
2023/03/01 03:29:37;;;;;;;9.17;7.60;;;-0.10;99.90;;;;;;5080234;28;20683;-70
2023/03/01 03:32:07;;;;;;;11.20;7.83;;;-0.10;99.90;;;;;;5088824;28;20788;-70
2023/03/01 03:34:33;;;;;;;11.00;8.23;;;-0.10;99.90;;;;;;5068007;28;20713;-70
2023/03/01 03:37:00;;;;;;;8.97;7.50;;;-0.10;99.90;;;;;;5068509;28;20214;-70
2023/03/01 03:39:34;;;;;;;9.30;6.90;;;0.00;99.90;;;;;;5067862;28;20734;-70
2023/03/01 03:42:02;;;;;;;11.17;7.47;;;-0.10;99.90;;;;;;5078518;28;20319;-70
2023/03/01 03:44:29;;;;;;;9.23;7.10;;;-0.20;99.90;;;;;;5088336;28;20213;-70
2023/03/01 03:46:56;;;;;;;9.90;7.73;;;-0.20;99.90;;;;;;5088036;28;20329;-70
2023/03/01 03:49:24;;;;;;;9.17;7.27;;;-0.30;99.90;;;;;;5077922;28;20294;-70
2023/03/01 03:51:51;;;;;;;8.70;7.80;;;-0.30;99.90;;;;;;5080018;28;20293;-70
2023/03/01 03:54:18;;;;;;;7.83;6.83;;;-0.20;99.90;;;;;;5087773;28;20231;-70
2023/03/01 03:56:45;;;;;;;8.50;7.50;;;-0.20;99.90;;;;;;5088086;28;20309;-70
2023/03/01 03:59:12;;;;;;;8.97;7.30;;;-0.20;99.90;;;;;;5087813;28;20297;-70
2023/03/01 04:01:39;;;;;;;13.13;7.50;;;-0.20;99.90;;;;;;5087592;28;20206;-70
2023/03/01 04:04:07;;;;;;;10.47;7.10;;;-0.30;99.90;;;;;;5073942;28;20214;-71
2023/03/01 04:06:35;;;;;;;8.20;7.33;;;-0.40;99.90;;;;;;5071468;28;20207;-71
2023/03/01 04:09:02;;;;;;;9.63;7.10;;;-0.40;99.90;;;;;;5088586;28;20308;-71
2023/03/01 04:11:29;;;;;;;10.03;7.60;;;-0.40;99.90;;;;;;5089756;28;20246;-71
2023/03/01 04:13:58;;;;;;;11.03;7.03;;;-0.40;99.90;;;;;;5089487;28;20317;-71
2023/03/01 04:16:25;;;;;;;8.90;7.20;;;-0.40;99.90;;;;;;5089289;28;20226;-71
2023/03/01 04:18:53;;;;;;;9.50;7.33;;;-0.40;99.90;;;;;;5084092;28;20306;-71
2023/03/01 04:21:20;;;;;;;8.50;7.13;;;-0.30;99.90;;;;;;5069778;28;20367;-71
2023/03/01 04:23:52;;;;;;;9.17;7.13;;;-0.30;99.90;;;;;;5083311;28;20309;-71
2023/03/01 04:26:19;;;;;;;7.97;6.67;;;-0.40;99.90;;;;;;5088900;28;20191;-70
2023/03/01 04:28:49;;;;;;;7.97;6.93;;;-0.40;99.90;;;;;;5089566;28;20235;-70
2023/03/01 04:31:20;;;;;;;9.37;6.93;;;-0.40;99.90;;;;;;5089396;28;20704;-71
2023/03/01 04:33:51;;;;;;;10.60;6.97;;;-0.50;99.90;;;;;;5089403;28;20693;-71
2023/03/01 04:36:19;;;;;;;8.53;6.90;;;-0.40;99.90;;;;;;5089643;28;20194;-71
2023/03/01 04:38:48;;;;;;;8.40;7.13;;;-0.40;99.90;;;;;;5089572;28;20573;-71
2023/03/01 04:41:17;;;;;;;8.17;7.03;;;-0.40;99.90;;;;;;5089459;28;20233;-71
2023/03/01 04:43:45;;;;;;;8.40;6.90;;;-0.50;99.90;;;;;;5089299;28;20768;-71
2023/03/01 04:46:14;;;;;;;9.13;7.13;;;-0.50;99.90;;;;;;5089501;28;20213;-71
2023/03/01 04:48:42;;;;;;;8.17;6.57;;;-0.50;99.90;;;;;;5089296;28;20221;-71
2023/03/01 04:51:13;;;;;;;9.50;7.50;;;-0.60;99.90;;;;;;5089153;28;20210;-71
2023/03/01 04:53:40;;;;;;;9.80;7.13;;;-0.60;99.90;;;;;;5088763;28;20693;-71
2023/03/01 04:56:09;;;;;;;8.47;6.77;;;-0.60;99.90;;;;;;5089075;28;20267;-71
2023/03/01 04:58:36;;;;;;;9.00;6.73;;;-0.60;99.90;;;;;;5088660;28;20211;-71
2023/03/01 05:01:15;;;;;;;8.13;6.33;;;-0.60;99.90;;;;;;5088711;28;20294;-71
2023/03/01 05:03:43;;;;;;;11.30;6.70;;;-0.70;99.90;;;;;;5089054;28;20217;-71
2023/03/01 05:06:11;;;;;;;11.83;7.03;;;-0.80;99.90;;;;;;5089089;28;20207;-71
2023/03/01 05:08:38;;;;;;;8.73;6.63;;;-0.80;99.90;;;;;;5088377;28;20241;-71
2023/03/01 05:11:08;;;;;;;9.50;6.77;;;-0.80;99.90;;;;;;5088605;28;20557;-72
2023/03/01 05:13:37;;;;;;;9.40;7.60;;;-0.80;99.90;;;;;;5088830;28;20226;-71
2023/03/01 05:16:10;;;;;;;10.57;7.80;;;-0.90;99.90;;;;;;5089033;28;20202;-71
2023/03/01 05:18:37;;;;;;;9.37;7.53;;;-0.80;99.90;;;;;;5088770;28;20203;-71
2023/03/01 05:21:07;;;;;;;9.57;7.43;;;-0.70;99.90;;;;;;5088930;28;20211;-71
2023/03/01 05:23:34;;;;;;;8.90;7.53;;;-0.80;99.90;;;;;;5088273;28;20264;-71
2023/03/01 05:26:03;;;;;;;9.40;7.53;;;-0.80;99.90;;;;;;5088725;28;20203;-71
2023/03/01 05:28:31;;;;;;;8.37;6.93;;;-0.80;99.90;;;;;;5088774;28;20203;-71
2023/03/01 05:30:59;;;;;;;11.03;7.30;;;-0.70;99.90;;;;;;5088503;28;20234;-71
2023/03/01 05:33:26;;;;;;;8.60;7.53;;;-0.70;99.90;;;;;;5088814;28;20285;-71
2023/03/01 05:35:54;;;;;;;7.67;6.87;;;-0.80;99.90;;;;;;5088603;28;20249;-71
2023/03/01 05:38:22;;;;;;;8.03;6.93;;;-0.80;99.90;;;;;;5088369;28;20207;-71
2023/03/01 05:40:50;;;;;;;12.73;7.27;;;-0.90;99.90;;;;;;5088489;28;20653;-71
2023/03/01 05:43:18;;;;;;;8.33;7.27;;;-0.90;99.90;;;;;;5088644;28;20285;-71
2023/03/01 05:45:45;;;;;;;7.73;6.67;;;-0.90;99.90;;;;;;5088191;28;20293;-71
2023/03/01 05:48:14;;;;;;;10.70;7.17;;;-1.00;99.90;;;;;;5088318;28;20609;-71
2023/03/01 05:50:42;;;;;;;9.23;7.23;;;-1.10;99.90;;;;;;5067665;28;20294;-71
2023/03/01 05:53:12;;;;;;;10.73;7.33;;;-1.20;99.90;;;;;;5067544;28;20212;-70
2023/03/01 05:55:40;;;;;;;11.53;7.80;;;-1.20;99.90;;;;;;5076009;28;20209;-70
2023/03/01 05:58:08;;;;;;;11.27;8.23;;;-1.10;99.90;;;;;;5088132;28;20298;-71
2023/03/01 06:00:36;;;;;;;10.93;8.43;;;-1.00;99.90;;;;;;5087536;28;20206;-71
2023/03/01 06:03:03;;;;;;;13.10;8.80;;;-1.00;99.90;;;;;;5085256;28;20206;-70
2023/03/01 06:05:32;;;;;;;15.80;8.87;;;-1.00;99.90;;;;;;5088030;28;20293;-71
2023/03/01 06:08:00;;;;;;;10.23;8.17;;;-1.10;99.90;;;;;;5087251;28;20235;-71
2023/03/01 06:10:27;;;;;;;10.77;8.10;;;-1.10;99.90;;;;;;5087845;28;20515;-71
2023/03/01 06:12:54;;;;;;;10.83;8.53;;;-1.10;99.90;;;;;;5087747;28;20710;-71
2023/03/01 06:15:22;;;;;;;13.87;8.80;;;-1.10;99.90;;;;;;5087773;28;20288;-71
2023/03/01 06:17:49;;;;;;;10.37;8.67;;;-1.10;99.90;;;;;;5087253;28;20691;-71
2023/03/01 06:20:18;;;;;;;9.10;7.80;;;-1.10;99.90;;;;;;5070158;28;20298;-71
2023/03/01 06:22:47;;;;;;;8.70;7.60;;;-1.10;99.90;;;;;;5072325;28;20217;-71
2023/03/01 06:25:17;;;;;;;8.40;7.33;;;-1.10;99.90;;;;;;5087813;28;20211;-71
2023/03/01 06:27:45;;;;;;;10.63;7.47;;;-1.00;99.90;;;;;;5087214;28;20209;-71
2023/03/01 06:30:14;;;;;;;9.20;7.70;;;-0.80;99.90;;;;;;5087404;28;20207;-71
2023/03/01 06:32:42;;;;;;;8.20;7.17;;;-0.60;99.90;;;;;;5087714;28;20223;-70
2023/03/01 06:35:10;;;;;;;8.70;7.70;;;-0.50;99.90;;;;;;5087488;28;20253;-71
2023/03/01 06:37:37;;;;;;;8.80;7.37;;;-0.30;99.90;;;;;;5087257;28;20213;-71
2023/03/01 06:40:08;;;;;;;9.37;7.90;;;-0.30;99.90;;;;;;5087197;28;20256;-71
2023/03/01 06:42:35;;;;;;;11.43;7.77;;;-0.50;99.90;;;;;;5087069;28;20203;-71
2023/03/01 06:45:02;;;;;;;8.63;7.50;;;-0.50;99.90;;;;;;5087702;28;20210;-71
2023/03/01 06:47:29;;;;;;;9.10;7.70;;;-0.50;99.90;;;;;;5087211;28;20687;-70
2023/03/01 06:49:56;;;;;;;14.07;8.33;;;-0.50;99.90;;;;;;5087893;28;20212;-71
2023/03/01 06:52:23;;;;;;;11.90;8.13;;;-0.60;99.90;;;;;;5091650;28;20302;-71
2023/03/01 06:54:50;;;;;;;11.60;8.07;;;-0.60;99.90;;;;;;5091329;28;20234;-71
2023/03/01 06:57:18;;;;;;;9.60;7.73;;;-0.60;99.90;;;;;;5091296;28;20302;-70
2023/03/01 06:59:45;;;;;;;9.07;7.90;;;-0.50;99.90;;;;;;5091207;28;20207;-71
2023/03/01 07:02:13;;;;;;;10.63;8.20;;;-0.50;99.90;;;;;;5091516;28;20320;-71
2023/03/01 07:04:40;;;;;;;11.93;8.20;;;-0.50;99.90;;;;;;5091365;28;20202;-71
2023/03/01 07:07:07;;;;;;;10.00;8.00;;;-0.50;99.90;;;;;;5090863;28;20726;-71
2023/03/01 07:09:34;;;;;;;11.50;8.83;;;-0.40;99.90;;;;;;5091182;28;20208;-71
2023/03/01 07:12:01;;;;;;;10.50;8.50;;;-0.40;99.90;;;;;;5091386;28;20209;-71
2023/03/01 07:14:30;;;;;;;12.23;8.67;;;-0.30;99.90;;;;;;5091382;28;20274;-71
2023/03/01 07:16:56;;;;;;;11.33;8.70;;;-0.30;99.90;;;;;;5091176;28;20550;-71
2023/03/01 07:19:24;;;;;;;10.20;8.53;;;-0.20;99.90;;;;;;5091392;28;20293;-71
2023/03/01 07:21:51;;;;;;;11.07;8.40;;;-0.20;99.90;;;;;;5090995;28;20579;-71
2023/03/01 07:24:18;;;;;;;14.30;8.90;;;-0.10;99.90;;;;;;5090651;28;20279;-71
2023/03/01 07:26:44;;;;;;;10.30;9.20;;;-0.10;99.90;;;;;;5090927;28;20294;-71
2023/03/01 07:29:12;;;;;;;11.77;9.30;;;-0.10;99.90;;;;;;5090762;28;20645;-71
2023/03/01 07:31:40;;;;;;;11.53;9.60;;;-0.10;99.90;;;;;;5090626;28;20314;-71
2023/03/01 07:34:07;;;;;;;9.83;8.67;;;0.00;99.90;;;;;;5090886;28;20235;-71
2023/03/01 07:36:34;;;;;;;10.77;8.77;;;0.10;99.90;;;;;;5091001;28;20220;-71
2023/03/01 07:39:02;;;;;;;12.00;8.80;;;0.20;99.90;;;;;;5090543;28;20237;-71
2023/03/01 07:41:29;;;;;;;11.70;9.43;;;0.30;99.90;;;;;;5090912;28;20582;-71
2023/03/01 07:43:56;;;;;;;11.73;9.37;;;0.40;99.90;;;;;;5090434;28;20245;-71
2023/03/01 07:46:23;;;;;;;11.17;9.13;;;0.50;99.90;;;;;;5090735;28;20314;-71
2023/03/01 07:48:51;;;;;;;10.57;8.57;;;0.60;99.90;;;;;;5090287;28;20209;-71
2023/03/01 07:51:18;;;;;;;10.83;8.60;;;0.60;99.90;;;;;;5090399;28;20648;-71
2023/03/01 07:53:47;;;;;;;9.57;8.57;;;0.80;99.90;;;;;;5090611;28;20309;-71
2023/03/01 07:56:18;;;;;;;12.97;9.27;;;0.80;99.90;;;;;;5090627;28;20600;-71
2023/03/01 07:58:45;;;;;;;12.10;9.70;;;0.90;99.90;;;;;;5090117;28;20218;-71
2023/03/01 08:01:14;;;;;;;12.50;10.00;;;1.00;99.90;;;;;;5090119;28;20221;-71
2023/03/01 08:03:41;;;;;;;13.10;9.73;;;1.10;99.90;;;;;;5090726;28;20634;-71
2023/03/01 08:06:11;;;;;;;12.00;9.03;;;1.10;99.90;;;;;;5090370;28;20293;-71
2023/03/01 08:08:39;;;;;;;11.40;9.63;;;1.20;99.90;;;;;;5089653;28;20630;-72
2023/03/01 08:11:07;;;;;;;11.87;9.37;;;1.30;99.90;;;;;;5090439;28;20230;-72
2023/03/01 08:13:34;;;;;;;12.53;9.10;;;1.40;99.90;;;;;;5090340;28;20281;-71
2023/03/01 08:16:05;;;;;;;11.10;8.73;;;1.50;99.90;;;;;;5089779;28;20432;-71
2023/03/01 08:18:32;;;;;;;13.00;9.27;;;1.60;99.90;;;;;;5089919;28;20222;-71
2023/03/01 08:21:03;;;;;;;25.07;9.37;;;1.70;99.90;;;;;;5089898;28;20298;-71
2023/03/01 08:23:31;;;;;;;10.23;7.47;;;1.90;99.90;;;;;;5089948;28;20233;-71
2023/03/01 08:26:06;;;;;;;9.57;7.67;;;2.00;99.90;;;;;;5090073;28;20302;-71
2023/03/01 08:28:33;;;;;;;9.70;8.03;;;2.10;99.90;;;;;;5089606;28;20645;-71
2023/03/01 08:30:59;;;;;;;11.50;8.60;;;2.10;99.90;;;;;;5089353;28;20250;-71
2023/03/01 08:33:26;;;;;;;11.90;8.40;;;2.20;99.90;;;;;;5090013;28;20238;-71
2023/03/01 08:35:53;;;;;;;10.13;8.40;;;2.30;99.90;;;;;;5068848;28;20694;-71
2023/03/01 08:38:20;;;;;;;11.23;7.37;;;2.40;99.90;;;;;;5068863;28;20294;-71
2023/03/01 08:40:48;;;;;;;9.20;7.70;;;2.50;99.90;;;;;;5069048;28;20298;-71
2023/03/01 08:43:16;;;;;;;9.40;7.70;;;2.50;99.90;;;;;;5069561;28;20243;-71
2023/03/01 08:45:44;;;;;;;10.00;7.50;;;2.60;99.90;;;;;;5088027;28;20293;-71
2023/03/01 08:48:10;;;;;;;8.37;7.53;;;2.70;99.90;;;;;;5075221;28;20401;-71
2023/03/01 08:50:37;;;;;;;8.10;7.23;;;2.80;99.90;;;;;;5068982;28;20265;-71
2023/03/01 08:53:06;;;;;;;10.70;7.00;;;2.80;99.90;;;;;;5069033;28;20291;-71
2023/03/01 08:55:34;;;;;;;8.07;7.10;;;2.90;99.90;;;;;;5068890;28;20227;-71
2023/03/01 08:58:02;;;;;;;9.07;7.30;;;3.10;99.90;;;;;;5069349;28;20298;-71
2023/03/01 09:00:29;;;;;;;9.63;7.50;;;3.10;99.90;;;;;;5069202;28;20289;-71
2023/03/01 09:02:56;;;;;;;11.73;7.37;;;3.20;99.90;;;;;;5069180;28;20207;-71
2023/03/01 09:05:22;;;;;;;6.13;5.07;;;3.30;99.90;;;;;;5068869;28;20261;-71
2023/03/01 09:07:49;;;;;;;7.03;5.40;;;3.30;99.90;;;;;;5083693;28;20566;-71
2023/03/01 09:10:17;;;;;;;8.20;5.60;;;3.50;99.90;;;;;;5088791;28;20207;-71
2023/03/01 09:12:44;;;;;;;10.37;6.57;;;3.60;99.90;;;;;;5088030;28;20260;-71
2023/03/01 09:15:12;;;;;;;6.53;5.93;;;3.60;99.90;;;;;;5088898;28;20232;-71
2023/03/01 09:17:39;;;;;;;7.60;6.07;;;3.70;99.90;;;;;;5088692;28;20305;-71
2023/03/01 09:20:07;;;;;;;9.13;5.67;;;3.80;99.90;;;;;;5088716;28;20657;-72
2023/03/01 09:22:34;;;;;;;6.80;4.90;;;3.80;99.90;;;;;;5088557;28;20210;-72
2023/03/01 09:25:01;;;;;;;6.10;5.00;;;3.90;99.90;;;;;;5088814;28;20211;-72
2023/03/01 09:27:28;;;;;;;5.87;5.03;;;4.00;99.90;;;;;;5088917;28;20734;-71
2023/03/01 09:29:56;;;;;;;6.63;5.57;;;4.10;99.90;;;;;;5088507;28;20672;-71
2023/03/01 09:32:24;;;;;;;6.53;5.93;;;4.20;99.90;;;;;;5088211;28;20230;-71
2023/03/01 09:35:04;;;;;;;5.63;5.13;;;4.30;99.90;;;;;;5088603;28;20313;-71
2023/03/01 09:37:32;;;;;;;5.33;4.60;;;4.40;99.90;;;;;;5088704;28;20229;-72
2023/03/01 09:39:59;;;;;;;4.83;4.00;;;4.60;99.90;;;;;;5086007;28;20206;-72
2023/03/01 09:42:28;;;;;;;7.47;4.00;;;4.70;99.90;;;;;;5071995;28;20282;-71
2023/03/01 09:45:00;;;;;;;7.87;4.27;;;4.80;99.90;;;;;;5088201;28;20587;-72
2023/03/01 09:47:32;;;;;;;6.40;4.83;;;4.90;99.90;;;;;;5088717;28;20195;-72
2023/03/01 09:50:04;;;;;;;9.50;4.77;;;5.10;99.90;;;;;;5088583;28;20234;-72
2023/03/01 09:52:39;;;;;;;6.37;5.20;;;5.10;99.90;;;;;;5076091;28;20217;-72
2023/03/01 09:55:12;;;;;;;6.10;5.47;;;5.20;99.90;;;;;;5068121;28;20219;-72
2023/03/01 09:57:46;;;;;;;5.17;4.67;;;5.30;99.90;;;;;;5067879;28;20218;-72
2023/03/01 10:00:33;;;;;;;6.07;4.57;;;5.30;99.90;;;;;;5068029;28;20204;-72
2023/03/01 10:03:10;;;;;;;5.70;4.33;;;5.40;99.90;;;;;;5074068;28;20289;-72
2023/03/01 10:05:46;;;;;;;5.23;4.03;;;5.50;99.90;;;;;;5088192;28;20190;-70
2023/03/01 10:08:30;;;;;;;3.87;3.57;;;5.60;99.90;;;;;;5087821;28;20341;-73
2023/03/01 10:10:58;;;;;;;4.63;4.23;;;5.90;99.90;;;;;;5088154;28;20252;-72
2023/03/01 10:13:34;;;;;;;4.90;4.10;;;6.00;99.90;;;;;;5087664;28;20242;-72
2023/03/01 10:16:10;;;;;;;4.83;4.33;;;6.10;99.90;;;;;;5087678;28;20581;-72
2023/03/01 10:18:40;;;;;;;5.57;4.57;;;6.20;99.90;;;;;;5088011;28;20295;-73
2023/03/01 10:21:17;;;;;;;4.37;3.97;;;6.30;99.90;;;;;;5087770;28;20191;-72
2023/03/01 10:23:44;;;;;;;6.80;3.80;;;6.40;99.90;;;;;;5087598;28;20544;-72
2023/03/01 10:26:25;;;;;;;5.23;3.83;;;6.40;99.90;;;;;;5086825;28;20242;-72
2023/03/01 10:29:02;;;;;;;4.23;3.47;;;6.50;99.90;;;;;;5087926;28;20257;-72
2023/03/01 10:31:37;;;;;;;4.30;3.90;;;6.50;99.90;;;;;;5087498;28;20245;-72
2023/03/01 10:34:11;;;;;;;4.40;4.00;;;6.60;99.90;;;;;;5087807;28;20277;-72
2023/03/01 10:36:40;;;;;;;5.20;3.77;;;6.60;99.90;;;;;;5087264;28;20225;-73
2023/03/01 10:39:14;;;;;;;3.87;3.50;;;6.60;99.90;;;;;;5080192;28;20222;-73
2023/03/01 10:41:53;;;;;;;4.10;3.70;;;6.70;99.90;;;;;;5081479;28;20301;-73
2023/03/01 10:44:38;;;;;;;3.20;2.90;;;6.80;99.90;;;;;;5087414;28;20285;-72
2023/03/01 10:47:05;;;;;;;4.60;2.90;;;6.90;99.90;;;;;;5087653;28;20290;-73
2023/03/01 10:49:33;;;;;;;3.83;2.90;;;6.90;99.90;;;;;;5076682;28;20298;-72
2023/03/01 10:52:18;;;;;;;3.10;2.80;;;7.10;99.90;;;;;;5066964;28;20290;-72
2023/03/01 10:54:53;;;;;;;3.27;2.97;;;7.30;99.90;;;;;;5067265;28;20195;-72
2023/03/01 10:57:40;;;;;;;2.77;2.50;;;7.50;99.90;;;;;;5066905;28;20290;-72
2023/03/01 11:00:24;;;;;;;2.80;2.57;;;7.70;99.90;;;;;;5080447;28;20628;-73
2023/03/01 11:03:03;;;;;;;6.17;2.83;;;7.90;99.90;;;;;;5087090;28;20293;-72
2023/03/01 11:05:33;;;;;;;6.13;2.40;;;8.00;99.90;;;;;;5087030;28;20210;-72
2023/03/01 11:08:02;;;;;;;2.63;2.23;;;8.10;99.90;;;;;;5086930;28;20239;-72
2023/03/01 11:10:32;;;;;;;2.63;2.27;;;8.10;99.10;;;;;;5087417;28;20237;-72
2023/03/01 11:13:09;;;;;;;3.23;2.20;;;8.20;98.90;;;;;;5086920;28;20242;-72
2023/03/01 11:15:36;;;;;;;2.40;2.20;;;8.20;98.50;;;;;;5087066;28;20241;-72
2023/03/01 11:18:04;;;;;;;3.60;1.73;;;8.20;97.30;;;;;;5086834;28;20297;-72
2023/03/01 11:20:35;;;;;;;2.33;1.60;;;8.40;97.40;;;;;;5087095;28;20704;-73
2023/03/01 11:23:06;;;;;;;2.40;1.30;;;8.40;96.20;;;;;;5087202;28;20235;-72
2023/03/01 11:25:38;;;;;;;1.50;1.40;;;8.60;95.20;;;;;;5087423;28;20198;-72
2023/03/01 11:28:07;;;;;;;2.17;1.70;;;8.80;94.80;;;;;;5086955;28;20191;-73
2023/03/01 11:30:41;;;;;;;3.47;1.90;;;8.80;95.40;;;;;;5087116;28;20310;-72
2023/03/01 11:33:18;;;;;;;3.90;2.20;;;8.70;95.60;;;;;;5087129;28;20293;-73
2023/03/01 11:35:56;;;;;;;2.40;2.20;;;8.80;95.10;;;;;;5087117;28;20716;-73
2023/03/01 11:38:25;;;;;;;1.93;1.80;;;8.90;95.20;;;;;;5090166;28;20293;-73
2023/03/01 11:40:59;;;;;;;2.00;1.90;;;8.90;95.30;;;;;;5090737;28;20740;-73
2023/03/01 11:43:35;;;;;;;3.47;1.70;;;9.00;94.90;;;;;;5090612;28;20901;-73
2023/03/01 11:46:33;;;;;;;2.10;1.90;;;9.00;93.60;;;;;;5090283;28;20203;-73
2023/03/01 11:49:15;;;;;;;1.70;1.60;;;9.10;93.50;;;;;;5069010;28;20290;-73
2023/03/01 11:51:55;;;;;;;2.23;1.50;;;9.30;92.90;;;;;;5070022;28;20230;-73
2023/03/01 11:54:35;;;;;;;1.87;1.70;;;9.40;92.50;;;;;;5069596;28;20217;-72
2023/03/01 11:57:08;;;;;;;1.80;1.70;;;9.50;92.10;;;;;;5070143;28;20234;-72
2023/03/01 12:00:01;;;;;;;1.77;1.60;;;9.60;91.70;;;;;;5070061;28;20279;-71
2023/03/01 12:02:57;;;;;;;2.73;1.53;;;9.70;91.90;;;;;;5070192;28;20231;-72
2023/03/01 12:06:13;;;;;;;1.50;1.50;;;9.80;92.10;;;;;;5070159;28;20220;-73
2023/03/01 12:08:46;;;;;;;2.87;1.43;;;9.90;91.60;;;;;;5027111;28;20726;-72
2023/03/01 12:11:27;;;;;;;1.80;1.67;;;10.10;91.10;;;;;;5073853;28;20560;-72
2023/03/01 12:14:27;;;;;;;1.70;1.60;;;10.20;90.80;;;;;;5090140;28;20245;-72
2023/03/01 12:17:11;;;;;;;2.17;1.97;;;10.30;90.80;;;;;;5066519;28;20312;-72
2023/03/01 12:19:55;;;;;;;2.07;1.80;;;10.40;91.70;;;;;;5069970;28;20246;-72
2023/03/01 12:22:31;;;;;;;2.10;2.00;;;10.50;91.20;;;;;;5071824;28;20757;-72
2023/03/01 12:25:19;;;;;;;2.43;2.10;;;10.60;90.40;;;;;;5089859;28;20646;-72
2023/03/01 12:28:19;;;;;;;2.43;2.00;;;10.70;91.60;;;;;;5089511;28;20199;-73
2023/03/01 12:31:02;;;;;;;3.07;2.20;;;10.90;90.90;;;;;;5089497;28;20253;-73
2023/03/01 12:33:40;;;;;;;1.93;1.83;;;10.90;90.40;;;;;;5089555;28;20290;-72
2023/03/01 12:36:34;;;;;;;2.83;1.90;;;11.00;90.50;;;;;;5089805;28;20214;-72
2023/03/01 12:39:17;;;;;;;3.97;1.80;;;11.00;89.00;;;;;;5089674;28;20202;-72
2023/03/01 12:41:53;;;;;;;2.63;2.07;;;11.00;89.10;;;;;;5073517;28;20290;-72
2023/03/01 12:44:43;;;;;;;2.53;2.33;;;11.10;88.70;;;;;;5069555;28;20294;-72
2023/03/01 12:47:31;;;;;;;3.57;1.43;;;11.20;87.90;;;;;;5068996;28;20291;-72
2023/03/01 12:50:02;;;;;;;1.93;1.83;;;11.30;88.70;;;;;;5069511;28;20298;-72
2023/03/01 12:52:38;;;;;;;2.57;1.90;;;11.40;87.00;;;;;;5081744;28;20199;-72
2023/03/01 12:55:16;;;;;;;1.70;1.60;;;11.40;86.30;;;;;;5089190;28;20545;-72
2023/03/01 12:57:50;;;;;;;2.00;1.80;;;11.50;86.20;;;;;;5089165;28;20313;-72
2023/03/01 13:00:27;;;;;;;5.17;2.10;;;11.60;86.20;;;;;;5089295;28;20227;-72
2023/03/01 13:03:01;;;;;;;4.70;2.20;;;11.70;84.70;;;;;;5089189;28;20256;-72
2023/03/01 13:05:40;;;;;;;2.67;1.70;;;11.70;84.50;;;;;;5089308;28;20274;-72